Airfield :
LOGIN :

Register | Disclaimer

   EN    FR    IT 

 










Legend :    VFR   Marginal VFR   IFR   Intensive IFR   Very Intensive IFR
Visi :
Ceiling :
>= 8 km
>= 3000ft
5 to 8 km
1000 to 3000 ft
1500m to 5 km
500 to 1000 ft
800 to 1500m
200 to 500 ft
< 800m
< 200 ft
Symbols :   Thunderstorms  Fog  Heavy snow  Heavy precipitations  Wind > 20 kt
SIGMETs :     Misc.  Thunderstorms  Icing  Turbulence  Mountain Waves  Volcanic Ashes






- Airport Elevation : 755 ft
- IATA code : KSC


LZKZ - Kosice

CURRENT METAR :
  • 271030Z 05005KT 020V120 CAVOK 07/M04 Q1004 NOSIG

EXPIRED METARs :
  • 271000Z 36007KT 300V020 CAVOK 07/M05 Q1004 NOSIG
  • 270930Z 35009KT 290V030 9999 FEW040 07/M05 Q1004 NOSIG
  • 270900Z 34009KT 310V010 9999 FEW040 06/M05 Q1004 NOSIG
  • 270830Z 35008KT 330V040 9999 FEW040 06/M04 Q1003 NOSIG
  • 270800Z 34007KT 310V010 CAVOK 05/M04 Q1003 NOSIG

TAF TAF LZKZ
Valid from the 27 at 06:00 until the 28 at 06:00 UTC


270500Z 2706/2806 VRB02KT CAVOK
BECMG 2709/2711 26005KT 9999 BKN040
TEMPO 2714/2718 -SHRA FEW020TCU BKN035
TEMPO 2718/2723 VRB02KT 3000 BR FEW015 SCT040
BECMG 2801/2803 18005KT -SN SCT015 BKN030
PROB40
TEMPO 2804/2806 5000 SN BKN015



MET'MAP, your aeronautical weather chart ! - Copyright ORBIFLY December 2007 - Disclaimer

ORBIFLY MET'MAP TEAM :

Programming & Development : Alexandra Zaïnal
Concept & original design : Baudouin d'Aumeries
Assistance for programming : Marc-Olivier Méhu
Technical & hardware support : Manuel Goepfert

Contact : metmap@orbifly.com




SOURCES & CREDITS :

   NOAA